sensor_id;sensor_type;location;lat;lon;timestamp;pressure;altitude;pressure_sealevel;temperature
75822;BMP180;64454;51.984;9.838;2023-03-03T00:00:07;100932.00;;;3.10
75822;BMP180;64454;51.984;9.838;2023-03-03T00:02:34;100930.00;;;2.80
75822;BMP180;64454;51.984;9.838;2023-03-03T00:05:01;100935.00;;;3.00
75822;BMP180;64454;51.984;9.838;2023-03-03T00:07:28;100937.00;;;3.00
75822;BMP180;64454;51.984;9.838;2023-03-03T00:09:54;100946.00;;;2.90
75822;BMP180;64454;51.984;9.838;2023-03-03T00:12:24;100938.00;;;3.00
75822;BMP180;64454;51.984;9.838;2023-03-03T00:14:54;100938.00;;;3.10
75822;BMP180;64454;51.984;9.838;2023-03-03T00:17:23;100939.00;;;3.00
75822;BMP180;64454;51.984;9.838;2023-03-03T00:19:51;100932.00;;;2.70
75822;BMP180;64454;51.984;9.838;2023-03-03T00:22:28;100934.00;;;2.60
75822;BMP180;64454;51.984;9.838;2023-03-03T00:24:59;100929.00;;;2.60
75822;BMP180;64454;51.984;9.838;2023-03-03T00:27:30;100931.00;;;2.70
75822;BMP180;64454;51.984;9.838;2023-03-03T00:30:05;100930.00;;;2.70
75822;BMP180;64454;51.984;9.838;2023-03-03T00:32:44;100932.00;;;2.30
75822;BMP180;64454;51.984;9.838;2023-03-03T00:35:26;100934.00;;;2.40
75822;BMP180;64454;51.984;9.838;2023-03-03T00:37:57;100926.00;;;2.80
75822;BMP180;64454;51.984;9.838;2023-03-03T00:40:30;100933.00;;;2.20
75822;BMP180;64454;51.984;9.838;2023-03-03T00:42:59;100922.00;;;1.60
75822;BMP180;64454;51.984;9.838;2023-03-03T00:45:32;100926.00;;;2.10
75822;BMP180;64454;51.984;9.838;2023-03-03T00:48:24;100914.00;;;1.90
75822;BMP180;64454;51.984;9.838;2023-03-03T00:50:53;100921.00;;;2.30
75822;BMP180;64454;51.984;9.838;2023-03-03T00:53:22;100922.00;;;1.80
75822;BMP180;64454;51.984;9.838;2023-03-03T00:55:50;100915.00;;;2.10
75822;BMP180;64454;51.984;9.838;2023-03-03T00:58:19;100925.00;;;2.00
75822;BMP180;64454;51.984;9.838;2023-03-03T01:00:49;100927.00;;;2.10
75822;BMP180;64454;51.984;9.838;2023-03-03T01:03:20;100925.00;;;1.90
75822;BMP180;64454;51.984;9.838;2023-03-03T01:05:48;100917.00;;;2.10
75822;BMP180;64454;51.984;9.838;2023-03-03T01:08:15;100919.00;;;1.80
75822;BMP180;64454;51.984;9.838;2023-03-03T01:10:47;100916.00;;;2.20
75822;BMP180;64454;51.984;9.838;2023-03-03T01:13:16;100923.00;;;2.10
75822;BMP180;64454;51.984;9.838;2023-03-03T01:15:43;100915.00;;;2.40
75822;BMP180;64454;51.984;9.838;2023-03-03T01:18:12;100920.00;;;2.10
75822;BMP180;64454;51.984;9.838;2023-03-03T01:20:40;100935.00;;;2.20
75822;BMP180;64454;51.984;9.838;2023-03-03T01:23:08;100923.00;;;2.30
75822;BMP180;64454;51.984;9.838;2023-03-03T01:25:35;100914.00;;;2.00
75822;BMP180;64454;51.984;9.838;2023-03-03T01:28:03;100919.00;;;2.20
75822;BMP180;64454;51.984;9.838;2023-03-03T01:30:30;100924.00;;;2.40
75822;BMP180;64454;51.984;9.838;2023-03-03T01:32:57;100926.00;;;2.20
75822;BMP180;64454;51.984;9.838;2023-03-03T01:35:25;100941.00;;;2.40
75822;BMP180;64454;51.984;9.838;2023-03-03T01:37:54;100935.00;;;2.20
75822;BMP180;64454;51.984;9.838;2023-03-03T01:40:25;100942.00;;;2.30
75822;BMP180;64454;51.984;9.838;2023-03-03T01:42:52;100946.00;;;2.20
75822;BMP180;64454;51.984;9.838;2023-03-03T01:45:23;100942.00;;;2.20
75822;BMP180;64454;51.984;9.838;2023-03-03T01:47:58;100947.00;;;2.00
75822;BMP180;64454;51.984;9.838;2023-03-03T01:50:39;100952.00;;;1.60
75822;BMP180;64454;51.984;9.838;2023-03-03T01:53:13;100943.00;;;1.60
75822;BMP180;64454;51.984;9.838;2023-03-03T01:55:42;100945.00;;;2.20
75822;BMP180;64454;51.984;9.838;2023-03-03T01:58:15;100947.00;;;2.00
75822;BMP180;64454;51.984;9.838;2023-03-03T02:00:48;100946.00;;;1.80
75822;BMP180;64454;51.984;9.838;2023-03-03T02:03:19;100937.00;;;1.90
75822;BMP180;64454;51.984;9.838;2023-03-03T02:05:50;100933.00;;;1.40
75822;BMP180;64454;51.984;9.838;2023-03-03T02:08:24;100933.00;;;2.20
75822;BMP180;64454;51.984;9.838;2023-03-03T02:10:56;100936.00;;;1.70
75822;BMP180;64454;51.984;9.838;2023-03-03T02:13:23;100939.00;;;1.80
75822;BMP180;64454;51.984;9.838;2023-03-03T02:15:50;100942.00;;;1.50
75822;BMP180;64454;51.984;9.838;2023-03-03T02:18:19;100932.00;;;1.80
75822;BMP180;64454;51.984;9.838;2023-03-03T02:20:56;100942.00;;;1.60
75822;BMP180;64454;51.984;9.838;2023-03-03T02:23:30;100931.00;;;1.20
75822;BMP180;64454;51.984;9.838;2023-03-03T02:26:06;100924.00;;;1.40
75822;BMP180;64454;51.984;9.838;2023-03-03T02:28:35;100934.00;;;1.60
75822;BMP180;64454;51.984;9.838;2023-03-03T02:31:05;100922.00;;;2.00
75822;BMP180;64454;51.984;9.838;2023-03-03T02:33:32;100925.00;;;1.90
75822;BMP180;64454;51.984;9.838;2023-03-03T02:35:59;100935.00;;;2.20
75822;BMP180;64454;51.984;9.838;2023-03-03T02:38:29;100937.00;;;2.10
75822;BMP180;64454;51.984;9.838;2023-03-03T02:41:08;100933.00;;;2.20
75822;BMP180;64454;51.984;9.838;2023-03-03T02:43:44;100930.00;;;1.50
75822;BMP180;64454;51.984;9.838;2023-03-03T02:46:12;100924.00;;;1.40
75822;BMP180;64454;51.984;9.838;2023-03-03T02:48:39;100936.00;;;1.70
75822;BMP180;64454;51.984;9.838;2023-03-03T02:51:06;100933.00;;;2.20
75822;BMP180;64454;51.984;9.838;2023-03-03T02:53:32;100933.00;;;2.20
75822;BMP180;64454;51.984;9.838;2023-03-03T02:55:59;100936.00;;;2.30
75822;BMP180;64454;51.984;9.838;2023-03-03T02:58:27;100923.00;;;2.30
75822;BMP180;64454;51.984;9.838;2023-03-03T03:00:54;100926.00;;;2.50
75822;BMP180;64454;51.984;9.838;2023-03-03T03:03:22;100918.00;;;2.10
75822;BMP180;64454;51.984;9.838;2023-03-03T03:05:48;100920.00;;;2.20
75822;BMP180;64454;51.984;9.838;2023-03-03T03:08:15;100917.00;;;2.00
75822;BMP180;64454;51.984;9.838;2023-03-03T03:10:42;100913.00;;;2.00
75822;BMP180;64454;51.984;9.838;2023-03-03T03:13:09;100914.00;;;2.10
75822;BMP180;64454;51.984;9.838;2023-03-03T03:15:37;100916.00;;;2.10
75822;BMP180;64454;51.984;9.838;2023-03-03T03:18:04;100912.00;;;1.60
75822;BMP180;64454;51.984;9.838;2023-03-03T03:20:35;100904.00;;;1.50
75822;BMP180;64454;51.984;9.838;2023-03-03T03:23:04;100919.00;;;1.70
75822;BMP180;64454;51.984;9.838;2023-03-03T03:25:31;100922.00;;;1.80
75822;BMP180;64454;51.984;9.838;2023-03-03T03:27:58;100937.00;;;1.60
75822;BMP180;64454;51.984;9.838;2023-03-03T03:30:25;100928.00;;;1.80
75822;BMP180;64454;51.984;9.838;2023-03-03T03:32:53;100932.00;;;1.80
75822;BMP180;64454;51.984;9.838;2023-03-03T03:35:20;100921.00;;;1.70
75822;BMP180;64454;51.984;9.838;2023-03-03T03:37:47;100931.00;;;1.90
75822;BMP180;64454;51.984;9.838;2023-03-03T03:40:14;100926.00;;;1.50
75822;BMP180;64454;51.984;9.838;2023-03-03T03:42:40;100923.00;;;1.90
75822;BMP180;64454;51.984;9.838;2023-03-03T03:45:08;100923.00;;;1.80
75822;BMP180;64454;51.984;9.838;2023-03-03T03:47:39;100924.00;;;1.70
75822;BMP180;64454;51.984;9.838;2023-03-03T03:50:09;100928.00;;;1.50
75822;BMP180;64454;51.984;9.838;2023-03-03T03:52:36;100921.00;;;1.70
75822;BMP180;64454;51.984;9.838;2023-03-03T03:55:05;100934.00;;;1.70
75822;BMP180;64454;51.984;9.838;2023-03-03T03:57:31;100931.00;;;1.70
75822;BMP180;64454;51.984;9.838;2023-03-03T03:59:59;100932.00;;;1.40
75822;BMP180;64454;51.984;9.838;2023-03-03T04:02:25;100932.00;;;1.50
75822;BMP180;64454;51.984;9.838;2023-03-03T04:04:52;100927.00;;;1.30
75822;BMP180;64454;51.984;9.838;2023-03-03T04:07:21;100919.00;;;1.20
75822;BMP180;64454;51.984;9.838;2023-03-03T04:09:48;100915.00;;;1.30
75822;BMP180;64454;51.984;9.838;2023-03-03T04:12:15;100920.00;;;1.40
75822;BMP180;64454;51.984;9.838;2023-03-03T04:14:42;100926.00;;;1.80
75822;BMP180;64454;51.984;9.838;2023-03-03T04:17:16;100919.00;;;2.00
75822;BMP180;64454;51.984;9.838;2023-03-03T04:19:43;100921.00;;;1.90
75822;BMP180;64454;51.984;9.838;2023-03-03T04:22:10;100921.00;;;1.70
75822;BMP180;64454;51.984;9.838;2023-03-03T04:24:39;100922.00;;;1.70
75822;BMP180;64454;51.984;9.838;2023-03-03T04:27:06;100916.00;;;2.00
75822;BMP180;64454;51.984;9.838;2023-03-03T04:29:34;100920.00;;;2.20
75822;BMP180;64454;51.984;9.838;2023-03-03T04:32:01;100925.00;;;1.90
75822;BMP180;64454;51.984;9.838;2023-03-03T04:34:28;100930.00;;;1.80
75822;BMP180;64454;51.984;9.838;2023-03-03T04:36:55;100925.00;;;1.70
75822;BMP180;64454;51.984;9.838;2023-03-03T04:39:22;100929.00;;;1.50
75822;BMP180;64454;51.984;9.838;2023-03-03T04:41:50;100942.00;;;1.60
75822;BMP180;64454;51.984;9.838;2023-03-03T04:44:19;100948.00;;;1.60
75822;BMP180;64454;51.984;9.838;2023-03-03T04:46:46;100939.00;;;1.60
75822;BMP180;64454;51.984;9.838;2023-03-03T04:49:15;100938.00;;;1.10
75822;BMP180;64454;51.984;9.838;2023-03-03T04:51:43;100952.00;;;1.60
75822;BMP180;64454;51.984;9.838;2023-03-03T04:54:10;100943.00;;;1.90
75822;BMP180;64454;51.984;9.838;2023-03-03T04:56:36;100954.00;;;1.80
75822;BMP180;64454;51.984;9.838;2023-03-03T04:59:05;100960.00;;;1.90
75822;BMP180;64454;51.984;9.838;2023-03-03T05:01:32;100959.00;;;1.80
75822;BMP180;64454;51.984;9.838;2023-03-03T05:03:59;100965.00;;;1.60
75822;BMP180;64454;51.984;9.838;2023-03-03T05:06:26;100954.00;;;1.70
75822;BMP180;64454;51.984;9.838;2023-03-03T05:08:53;100956.00;;;1.80
75822;BMP180;64454;51.984;9.838;2023-03-03T05:11:20;100951.00;;;1.80
75822;BMP180;64454;51.984;9.838;2023-03-03T05:13:47;100954.00;;;1.90
75822;BMP180;64454;51.984;9.838;2023-03-03T05:16:15;100958.00;;;1.90
75822;BMP180;64454;51.984;9.838;2023-03-03T05:18:42;100961.00;;;1.80
75822;BMP180;64454;51.984;9.838;2023-03-03T05:21:10;100953.00;;;1.60
75822;BMP180;64454;51.984;9.838;2023-03-03T05:23:37;100966.00;;;2.00
75822;BMP180;64454;51.984;9.838;2023-03-03T05:26:04;100968.00;;;1.90
75822;BMP180;64454;51.984;9.838;2023-03-03T05:28:31;100971.00;;;1.70
75822;BMP180;64454;51.984;9.838;2023-03-03T05:30:58;100966.00;;;1.80
75822;BMP180;64454;51.984;9.838;2023-03-03T05:33:26;100978.00;;;1.80
75822;BMP180;64454;51.984;9.838;2023-03-03T05:35:54;100969.00;;;1.80
75822;BMP180;64454;51.984;9.838;2023-03-03T05:38:21;100967.00;;;1.80
75822;BMP180;64454;51.984;9.838;2023-03-03T05:40:48;100966.00;;;1.40
75822;BMP180;64454;51.984;9.838;2023-03-03T05:43:15;100970.00;;;1.30
75822;BMP180;64454;51.984;9.838;2023-03-03T05:45:42;100960.00;;;1.20
75822;BMP180;64454;51.984;9.838;2023-03-03T05:48:09;100952.00;;;2.00
75822;BMP180;64454;51.984;9.838;2023-03-03T05:50:38;100961.00;;;1.90
75822;BMP180;64454;51.984;9.838;2023-03-03T05:53:05;100960.00;;;1.60
75822;BMP180;64454;51.984;9.838;2023-03-03T05:55:31;100958.00;;;1.70
75822;BMP180;64454;51.984;9.838;2023-03-03T05:57:58;100954.00;;;1.50
75822;BMP180;64454;51.984;9.838;2023-03-03T06:00:25;100954.00;;;1.80
75822;BMP180;64454;51.984;9.838;2023-03-03T06:02:52;100950.00;;;1.90
75822;BMP180;64454;51.984;9.838;2023-03-03T06:05:20;100954.00;;;1.90
75822;BMP180;64454;51.984;9.838;2023-03-03T06:07:48;100954.00;;;1.90
75822;BMP180;64454;51.984;9.838;2023-03-03T06:10:14;100954.00;;;1.60
75822;BMP180;64454;51.984;9.838;2023-03-03T06:12:41;100960.00;;;1.90
75822;BMP180;64454;51.984;9.838;2023-03-03T06:15:10;100962.00;;;1.90
75822;BMP180;64454;51.984;9.838;2023-03-03T06:17:37;100971.00;;;1.50
75822;BMP180;64454;51.984;9.838;2023-03-03T06:20:05;100955.00;;;1.70
75822;BMP180;64454;51.984;9.838;2023-03-03T06:22:34;100958.00;;;1.80
75822;BMP180;64454;51.984;9.838;2023-03-03T06:25:03;100958.00;;;1.60
75822;BMP180;64454;51.984;9.838;2023-03-03T06:27:30;100958.00;;;1.60
75822;BMP180;64454;51.984;9.838;2023-03-03T06:29:56;100954.00;;;1.60
75822;BMP180;64454;51.984;9.838;2023-03-03T06:32:23;100962.00;;;1.80
75822;BMP180;64454;51.984;9.838;2023-03-03T06:34:50;100969.00;;;1.90
75822;BMP180;64454;51.984;9.838;2023-03-03T06:37:17;100976.00;;;2.10
75822;BMP180;64454;51.984;9.838;2023-03-03T06:39:44;100976.00;;;1.80
75822;BMP180;64454;51.984;9.838;2023-03-03T06:42:12;100984.00;;;2.00
75822;BMP180;64454;51.984;9.838;2023-03-03T06:44:38;100991.00;;;1.70
75822;BMP180;64454;51.984;9.838;2023-03-03T06:47:06;101006.00;;;1.80
75822;BMP180;64454;51.984;9.838;2023-03-03T06:49:32;101013.00;;;1.90
75822;BMP180;64454;51.984;9.838;2023-03-03T06:52:09;101006.00;;;2.00
75822;BMP180;64454;51.984;9.838;2023-03-03T06:54:37;101014.00;;;2.00
75822;BMP180;64454;51.984;9.838;2023-03-03T06:57:16;101014.00;;;2.10
75822;BMP180;64454;51.984;9.838;2023-03-03T06:59:52;101010.00;;;1.90
75822;BMP180;64454;51.984;9.838;2023-03-03T07:02:21;101023.00;;;2.10
75822;BMP180;64454;51.984;9.838;2023-03-03T07:04:48;101014.00;;;1.80
75822;BMP180;64454;51.984;9.838;2023-03-03T07:07:18;101014.00;;;1.70
75822;BMP180;64454;51.984;9.838;2023-03-03T07:09:48;101007.00;;;1.60
75822;BMP180;64454;51.984;9.838;2023-03-03T07:12:19;101008.00;;;1.80
75822;BMP180;64454;51.984;9.838;2023-03-03T07:14:51;101014.00;;;1.90
75822;BMP180;64454;51.984;9.838;2023-03-03T07:17:23;101018.00;;;2.00
75822;BMP180;64454;51.984;9.838;2023-03-03T07:19:50;101023.00;;;1.80
75822;BMP180;64454;51.984;9.838;2023-03-03T07:22:20;101016.00;;;2.40
75822;BMP180;64454;51.984;9.838;2023-03-03T07:24:51;101015.00;;;2.00
75822;BMP180;64454;51.984;9.838;2023-03-03T07:27:24;101021.00;;;2.20
75822;BMP180;64454;51.984;9.838;2023-03-03T07:29:53;101021.00;;;2.40
75822;BMP180;64454;51.984;9.838;2023-03-03T07:32:26;101020.00;;;2.30
75822;BMP180;64454;51.984;9.838;2023-03-03T07:34:55;101029.00;;;2.20
75822;BMP180;64454;51.984;9.838;2023-03-03T07:37:34;101035.00;;;2.20
75822;BMP180;64454;51.984;9.838;2023-03-03T07:40:27;101045.00;;;1.80
75822;BMP180;64454;51.984;9.838;2023-03-03T07:42:58;101046.00;;;1.90
75822;BMP180;64454;51.984;9.838;2023-03-03T07:45:27;101038.00;;;2.00
75822;BMP180;64454;51.984;9.838;2023-03-03T07:48:05;101050.00;;;1.70
75822;BMP180;64454;51.984;9.838;2023-03-03T07:50:38;101050.00;;;1.80
75822;BMP180;64454;51.984;9.838;2023-03-03T07:53:21;101050.00;;;1.70
75822;BMP180;64454;51.984;9.838;2023-03-03T07:55:49;101052.00;;;1.90
75822;BMP180;64454;51.984;9.838;2023-03-03T07:58:22;101046.00;;;2.30
75822;BMP180;64454;51.984;9.838;2023-03-03T08:01:36;101047.00;;;2.70
75822;BMP180;64454;51.984;9.838;2023-03-03T08:04:16;101054.00;;;2.20
75822;BMP180;64454;51.984;9.838;2023-03-03T08:06:51;101051.00;;;2.30
75822;BMP180;64454;51.984;9.838;2023-03-03T08:09:46;101060.00;;;1.80
75822;BMP180;64454;51.984;9.838;2023-03-03T08:12:39;101059.00;;;2.20
75822;BMP180;64454;51.984;9.838;2023-03-03T08:15:30;101053.00;;;2.40
75822;BMP180;64454;51.984;9.838;2023-03-03T08:18:17;101054.00;;;2.20
75822;BMP180;64454;51.984;9.838;2023-03-03T08:20:47;101046.00;;;2.10
75822;BMP180;64454;51.984;9.838;2023-03-03T08:23:16;101053.00;;;2.10
75822;BMP180;64454;51.984;9.838;2023-03-03T08:25:44;101051.00;;;1.80
75822;BMP180;64454;51.984;9.838;2023-03-03T08:28:12;101051.00;;;1.70
75822;BMP180;64454;51.984;9.838;2023-03-03T08:30:42;101048.00;;;2.20
75822;BMP180;64454;51.984;9.838;2023-03-03T08:33:09;101047.00;;;2.30
75822;BMP180;64454;51.984;9.838;2023-03-03T08:35:36;101061.00;;;2.80
75822;BMP180;64454;51.984;9.838;2023-03-03T08:38:03;101058.00;;;2.70
75822;BMP180;64454;51.984;9.838;2023-03-03T08:40:31;101064.00;;;2.60
75822;BMP180;64454;51.984;9.838;2023-03-03T08:42:58;101070.00;;;2.50
75822;BMP180;64454;51.984;9.838;2023-03-03T08:45:26;101068.00;;;2.80
75822;BMP180;64454;51.984;9.838;2023-03-03T08:47:54;101061.00;;;2.90
75822;BMP180;64454;51.984;9.838;2023-03-03T08:50:22;101052.00;;;2.70
75822;BMP180;64454;51.984;9.838;2023-03-03T08:52:49;101060.00;;;2.90
75822;BMP180;64454;51.984;9.838;2023-03-03T08:55:17;101059.00;;;3.10
75822;BMP180;64454;51.984;9.838;2023-03-03T08:57:44;101061.00;;;2.70
75822;BMP180;64454;51.984;9.838;2023-03-03T09:00:14;101063.00;;;2.80
75822;BMP180;64454;51.984;9.838;2023-03-03T09:02:42;101059.00;;;3.20
75822;BMP180;64454;51.984;9.838;2023-03-03T09:05:11;101059.00;;;3.00
75822;BMP180;64454;51.984;9.838;2023-03-03T09:07:39;101072.00;;;3.00
75822;BMP180;64454;51.984;9.838;2023-03-03T09:10:07;101070.00;;;2.80
75822;BMP180;64454;51.984;9.838;2023-03-03T09:12:38;101067.00;;;3.00
75822;BMP180;64454;51.984;9.838;2023-03-03T09:15:24;101069.00;;;3.00
75822;BMP180;64454;51.984;9.838;2023-03-03T09:17:52;101071.00;;;3.80
75822;BMP180;64454;51.984;9.838;2023-03-03T09:20:32;101069.00;;;3.20
75822;BMP180;64454;51.984;9.838;2023-03-03T09:23:29;101068.00;;;2.90
75822;BMP180;64454;51.984;9.838;2023-03-03T09:26:14;101072.00;;;3.30
75822;BMP180;64454;51.984;9.838;2023-03-03T09:28:46;101064.00;;;3.00
75822;BMP180;64454;51.984;9.838;2023-03-03T09:31:24;101068.00;;;2.40
75822;BMP180;64454;51.984;9.838;2023-03-03T09:33:51;101067.00;;;2.70
75822;BMP180;64454;51.984;9.838;2023-03-03T09:36:26;101070.00;;;2.70
75822;BMP180;64454;51.984;9.838;2023-03-03T09:38:55;101069.00;;;3.50
75822;BMP180;64454;51.984;9.838;2023-03-03T09:42:04;101077.00;;;3.30
75822;BMP180;64454;51.984;9.838;2023-03-03T09:45:07;101075.00;;;3.20
75822;BMP180;64454;51.984;9.838;2023-03-03T09:48:17;101074.00;;;3.20
75822;BMP180;64454;51.984;9.838;2023-03-03T09:51:04;101072.00;;;3.20
75822;BMP180;64454;51.984;9.838;2023-03-03T09:53:54;101074.00;;;3.60
75822;BMP180;64454;51.984;9.838;2023-03-03T09:56:31;101069.00;;;3.60
75822;BMP180;64454;51.984;9.838;2023-03-03T09:59:21;101076.00;;;4.10
75822;BMP180;64454;51.984;9.838;2023-03-03T10:02:01;101070.00;;;3.60
75822;BMP180;64454;51.984;9.838;2023-03-03T10:05:00;101078.00;;;3.40
75822;BMP180;64454;51.984;9.838;2023-03-03T10:07:42;101069.00;;;3.90
75822;BMP180;64454;51.984;9.838;2023-03-03T10:10:42;101071.00;;;3.80
75822;BMP180;64454;51.984;9.838;2023-03-03T10:13:25;101073.00;;;4.10
75822;BMP180;64454;51.984;9.838;2023-03-03T10:19:27;101077.00;;;3.00
75822;BMP180;64454;51.984;9.838;2023-03-03T10:22:16;101079.00;;;3.20
75822;BMP180;64454;51.984;9.838;2023-03-03T10:24:58;101074.00;;;3.00
75822;BMP180;64454;51.984;9.838;2023-03-03T10:27:43;101090.00;;;2.80
75822;BMP180;64454;51.984;9.838;2023-03-03T10:30:20;101086.00;;;3.20
75822;BMP180;64454;51.984;9.838;2023-03-03T10:32:57;101075.00;;;3.60
75822;BMP180;64454;51.984;9.838;2023-03-03T10:36:00;101081.00;;;4.20
75822;BMP180;64454;51.984;9.838;2023-03-03T10:38:55;101077.00;;;3.80
75822;BMP180;64454;51.984;9.838;2023-03-03T10:41:41;101083.00;;;3.60
75822;BMP180;64454;51.984;9.838;2023-03-03T10:44:35;101081.00;;;4.10
75822;BMP180;64454;51.984;9.838;2023-03-03T10:47:27;101078.00;;;4.00
75822;BMP180;64454;51.984;9.838;2023-03-03T10:50:11;101083.00;;;4.10
75822;BMP180;64454;51.984;9.838;2023-03-03T10:52:48;101077.00;;;3.90
75822;BMP180;64454;51.984;9.838;2023-03-03T10:55:34;101073.00;;;4.10
75822;BMP180;64454;51.984;9.838;2023-03-03T10:58:31;101074.00;;;4.60
75822;BMP180;64454;51.984;9.838;2023-03-03T11:01:12;101077.00;;;4.30
75822;BMP180;64454;51.984;9.838;2023-03-03T11:04:24;101075.00;;;4.20
75822;BMP180;64454;51.984;9.838;2023-03-03T11:07:03;101077.00;;;4.20
75822;BMP180;64454;51.984;9.838;2023-03-03T11:09:59;101076.00;;;3.90
75822;BMP180;64454;51.984;9.838;2023-03-03T11:12:43;101081.00;;;4.60
75822;BMP180;64454;51.984;9.838;2023-03-03T11:15:35;101079.00;;;4.60
75822;BMP180;64454;51.984;9.838;2023-03-03T11:18:20;101070.00;;;4.70
75822;BMP180;64454;51.984;9.838;2023-03-03T11:20:56;101077.00;;;4.30
75822;BMP180;64454;51.984;9.838;2023-03-03T11:23:59;101065.00;;;4.70
75822;BMP180;64454;51.984;9.838;2023-03-03T11:26:49;101068.00;;;4.60
75822;BMP180;64454;51.984;9.838;2023-03-03T11:29:39;101074.00;;;4.30
75822;BMP180;64454;51.984;9.838;2023-03-03T11:32:21;101074.00;;;4.70
75822;BMP180;64454;51.984;9.838;2023-03-03T11:35:07;101070.00;;;4.40
75822;BMP180;64454;51.984;9.838;2023-03-03T11:37:45;101072.00;;;3.90
75822;BMP180;64454;51.984;9.838;2023-03-03T11:40:20;101063.00;;;4.20
75822;BMP180;64454;51.984;9.838;2023-03-03T11:43:00;101072.00;;;4.50
75822;BMP180;64454;51.984;9.838;2023-03-03T11:45:38;101070.00;;;4.60
75822;BMP180;64454;51.984;9.838;2023-03-03T11:48:14;101073.00;;;4.40
75822;BMP180;64454;51.984;9.838;2023-03-03T11:50:54;101065.00;;;4.70
75822;BMP180;64454;51.984;9.838;2023-03-03T11:53:39;101063.00;;;4.40
75822;BMP180;64454;51.984;9.838;2023-03-03T11:56:22;101067.00;;;4.40
75822;BMP180;64454;51.984;9.838;2023-03-03T11:58:59;101058.00;;;4.30
75822;BMP180;64454;51.984;9.838;2023-03-03T12:01:35;101066.00;;;4.30
75822;BMP180;64454;51.984;9.838;2023-03-03T12:04:12;101058.00;;;4.10
75822;BMP180;64454;51.984;9.838;2023-03-03T12:07:01;101053.00;;;4.90
75822;BMP180;64454;51.984;9.838;2023-03-03T12:09:44;101058.00;;;4.60
75822;BMP180;64454;51.984;9.838;2023-03-03T12:12:19;101050.00;;;4.40
75822;BMP180;64454;51.984;9.838;2023-03-03T12:15:03;101049.00;;;4.50
75822;BMP180;64454;51.984;9.838;2023-03-03T12:18:22;101044.00;;;4.30
75822;BMP180;64454;51.984;9.838;2023-03-03T12:21:09;101038.00;;;4.60
75822;BMP180;64454;51.984;9.838;2023-03-03T12:24:02;101037.00;;;4.20
75822;BMP180;64454;51.984;9.838;2023-03-03T12:26:42;101029.00;;;4.50
75822;BMP180;64454;51.984;9.838;2023-03-03T12:29:25;101029.00;;;4.60
75822;BMP180;64454;51.984;9.838;2023-03-03T12:32:01;101023.00;;;4.50
75822;BMP180;64454;51.984;9.838;2023-03-03T12:34:38;101006.00;;;4.90
75822;BMP180;64454;51.984;9.838;2023-03-03T12:37:26;101014.00;;;4.80
75822;BMP180;64454;51.984;9.838;2023-03-03T12:40:06;101018.00;;;5.00
75822;BMP180;64454;51.984;9.838;2023-03-03T12:42:51;101007.00;;;5.20
75822;BMP180;64454;51.984;9.838;2023-03-03T12:45:36;101007.00;;;4.70
75822;BMP180;64454;51.984;9.838;2023-03-03T12:48:16;101011.00;;;4.90
75822;BMP180;64454;51.984;9.838;2023-03-03T12:50:56;101004.00;;;5.10
75822;BMP180;64454;51.984;9.838;2023-03-03T12:53:50;101006.00;;;5.40
75822;BMP180;64454;51.984;9.838;2023-03-03T12:56:29;101011.00;;;4.90
75822;BMP180;64454;51.984;9.838;2023-03-03T12:59:03;101004.00;;;4.60
75822;BMP180;64454;51.984;9.838;2023-03-03T13:01:55;101005.00;;;4.40
75822;BMP180;64454;51.984;9.838;2023-03-03T13:04:37;101007.00;;;4.50
75822;BMP180;64454;51.984;9.838;2023-03-03T13:07:15;101000.00;;;4.80
75822;BMP180;64454;51.984;9.838;2023-03-03T13:10:03;100997.00;;;4.80
75822;BMP180;64454;51.984;9.838;2023-03-03T13:12:43;101001.00;;;4.90
75822;BMP180;64454;51.984;9.838;2023-03-03T13:15:18;100999.00;;;5.00
75822;BMP180;64454;51.984;9.838;2023-03-03T13:18:04;100996.00;;;5.50
75822;BMP180;64454;51.984;9.838;2023-03-03T13:20:43;100993.00;;;4.80
75822;BMP180;64454;51.984;9.838;2023-03-03T13:23:23;100996.00;;;5.20
75822;BMP180;64454;51.984;9.838;2023-03-03T13:25:59;100997.00;;;5.20
75822;BMP180;64454;51.984;9.838;2023-03-03T13:28:36;100995.00;;;4.80
75822;BMP180;64454;51.984;9.838;2023-03-03T13:31:11;100992.00;;;4.80
75822;BMP180;64454;51.984;9.838;2023-03-03T13:33:46;100993.00;;;4.50
75822;BMP180;64454;51.984;9.838;2023-03-03T13:36:17;100984.00;;;4.70
75822;BMP180;64454;51.984;9.838;2023-03-03T13:38:49;100986.00;;;5.00
75822;BMP180;64454;51.984;9.838;2023-03-03T13:41:24;100986.00;;;5.00
75822;BMP180;64454;51.984;9.838;2023-03-03T13:44:03;100977.00;;;5.10
75822;BMP180;64454;51.984;9.838;2023-03-03T13:46:40;100976.00;;;5.30
75822;BMP180;64454;51.984;9.838;2023-03-03T13:49:27;100975.00;;;5.70
75822;BMP180;64454;51.984;9.838;2023-03-03T13:52:02;100976.00;;;5.60
75822;BMP180;64454;51.984;9.838;2023-03-03T13:54:59;100963.00;;;5.40
75822;BMP180;64454;51.984;9.838;2023-03-03T13:57:51;100976.00;;;5.30
75822;BMP180;64454;51.984;9.838;2023-03-03T14:00:34;100975.00;;;5.60
75822;BMP180;64454;51.984;9.838;2023-03-03T14:06:16;100966.00;;;5.60
75822;BMP180;64454;51.984;9.838;2023-03-03T14:08:58;100964.00;;;5.60
75822;BMP180;64454;51.984;9.838;2023-03-03T14:11:34;100958.00;;;5.40
75822;BMP180;64454;51.984;9.838;2023-03-03T14:14:20;100967.00;;;5.00
75822;BMP180;64454;51.984;9.838;2023-03-03T14:16:55;100957.00;;;5.10
75822;BMP180;64454;51.984;9.838;2023-03-03T14:19:27;100955.00;;;4.70
75822;BMP180;64454;51.984;9.838;2023-03-03T14:22:14;100954.00;;;5.10
75822;BMP180;64454;51.984;9.838;2023-03-03T14:25:00;100953.00;;;5.10
75822;BMP180;64454;51.984;9.838;2023-03-03T14:27:33;100942.00;;;4.50
75822;BMP180;64454;51.984;9.838;2023-03-03T14:30:27;100947.00;;;4.80
75822;BMP180;64454;51.984;9.838;2023-03-03T14:33:13;100945.00;;;4.90
75822;BMP180;64454;51.984;9.838;2023-03-03T14:35:43;100944.00;;;5.10
75822;BMP180;64454;51.984;9.838;2023-03-03T14:38:16;100942.00;;;5.20
75822;BMP180;64454;51.984;9.838;2023-03-03T14:40:45;100939.00;;;5.40
75822;BMP180;64454;51.984;9.838;2023-03-03T14:43:24;100935.00;;;5.40
75822;BMP180;64454;51.984;9.838;2023-03-03T14:45:52;100929.00;;;4.90
75822;BMP180;64454;51.984;9.838;2023-03-03T14:48:22;100930.00;;;5.10
75822;BMP180;64454;51.984;9.838;2023-03-03T14:50:51;100936.00;;;5.10
75822;BMP180;64454;51.984;9.838;2023-03-03T14:53:33;100939.00;;;5.30
75822;BMP180;64454;51.984;9.838;2023-03-03T14:56:21;100937.00;;;5.00